Авиационная погода в Батуми

СКИДКИ НА СМАРТФОНЫ!

Регион: 
Погода METAR: 
UGSB 091530Z 26004KT 9999 SCT036 27/23 Q1008 NOSIG
Время наблюдения
2022-08-09T15:30:00Z
Температура C
27.0
Точка росы
23.0
Направление ветра
260
Скорость ветра (узлы)
4
Метео видимость
6.21
Облачность
SCT
Нижняя граница облачности (футы)
3600
Явления погоды
Условия полета
VFR
SCT – разбросанная отдельная облачность;

Скидки на навигаторы!